createdAt,value
2019-02-11T00:00:19.704Z,982.08
2019-02-11T00:01:19.693Z,982.13
2019-02-11T00:02:19.699Z,981.99
2019-02-11T00:03:19.667Z,982.01
2019-02-11T00:04:19.654Z,982.17
2019-02-11T00:05:19.645Z,982.23
2019-02-11T00:06:19.640Z,982.27
2019-02-11T00:07:19.647Z,982.41
2019-02-11T00:08:19.609Z,982.29
2019-02-11T00:09:19.611Z,982.53
2019-02-11T00:10:19.595Z,982.54
2019-02-11T00:11:19.586Z,982.45
2019-02-11T00:12:19.599Z,982.52
2019-02-11T00:13:19.597Z,982.63
2019-02-11T00:14:19.547Z,982.81
2019-02-11T00:15:19.539Z,982.63
2019-02-11T00:16:19.531Z,982.70
2019-02-11T00:17:19.516Z,982.77
2019-02-11T00:18:19.530Z,982.76
2019-02-11T00:19:19.492Z,982.83
2019-02-11T00:20:19.480Z,982.90
2019-02-11T00:21:19.466Z,982.85
2019-02-11T00:22:19.460Z,982.88
2019-02-11T00:23:19.468Z,982.94
2019-02-11T00:24:19.463Z,982.94
2019-02-11T00:25:19.425Z,983.04
2019-02-11T00:26:19.432Z,982.96
2019-02-11T00:27:19.400Z,982.95
2019-02-11T00:28:19.395Z,983.07
2019-02-11T00:29:19.420Z,982.98
2019-02-11T00:30:19.375Z,983.06
2019-02-11T00:31:19.397Z,982.93
2019-02-11T00:32:19.363Z,983.05
2019-02-11T00:33:19.331Z,983.04
2019-02-11T00:34:19.327Z,983.12
2019-02-11T00:35:19.344Z,983.04
2019-02-11T00:36:19.298Z,983.09
2019-02-11T00:37:19.287Z,983.14
2019-02-11T00:38:19.283Z,983.15
2019-02-11T00:39:19.277Z,983.18
2019-02-11T00:40:19.276Z,983.20
2019-02-11T00:41:19.259Z,983.25
2019-02-11T00:42:19.236Z,983.33
2019-02-11T00:43:19.555Z,983.14
2019-02-11T00:44:19.230Z,983.23
2019-02-11T00:45:19.251Z,983.29
2019-02-11T00:46:19.200Z,983.36
2019-02-11T00:47:19.204Z,983.35
2019-02-11T00:48:19.167Z,983.28
2019-02-11T00:49:19.161Z,983.39
2019-02-11T00:50:19.181Z,983.51
2019-02-11T00:51:19.187Z,983.46
2019-02-11T00:52:19.126Z,983.44
2019-02-11T00:53:19.116Z,983.54
2019-02-11T00:54:19.112Z,983.46
2019-02-11T00:55:19.090Z,983.48
2019-02-11T00:56:19.113Z,983.46
2019-02-11T00:57:19.074Z,983.54
2019-02-11T00:58:19.081Z,983.54
2019-02-11T00:59:20.923Z,983.55
2019-02-11T01:00:19.044Z,983.56
2019-02-11T01:01:19.034Z,983.58
2019-02-11T01:02:19.043Z,983.67
2019-02-11T01:03:19.009Z,983.68
2019-02-11T01:04:18.999Z,983.63
2019-02-11T01:05:18.985Z,983.75
2019-02-11T01:06:18.972Z,983.75
2019-02-11T01:07:19.005Z,983.85
2019-02-11T01:08:18.963Z,983.86
2019-02-11T01:09:18.954Z,983.82
2019-02-11T01:10:18.932Z,983.78
2019-02-11T01:11:18.927Z,983.91
2019-02-11T01:12:18.909Z,983.89
2019-02-11T01:13:27.177Z,983.92
2019-02-11T01:14:19.887Z,984.03
2019-02-11T01:15:18.887Z,984.02
2019-02-11T01:16:18.868Z,984.05
2019-02-11T01:17:18.855Z,983.97
2019-02-11T01:18:18.877Z,984.05
2019-02-11T01:19:18.872Z,984.03
2019-02-11T01:20:18.822Z,984.03
2019-02-11T01:21:18.809Z,984.24
2019-02-11T01:22:18.832Z,984.02
2019-02-11T01:23:18.821Z,984.06
2019-02-11T01:24:18.778Z,984.13
2019-02-11T01:25:18.771Z,984.15
2019-02-11T01:26:18.762Z,984.14
2019-02-11T01:27:18.746Z,984.16
2019-02-11T01:28:18.740Z,984.13
2019-02-11T01:29:18.752Z,984.16
2019-02-11T01:30:18.715Z,984.21
2019-02-11T01:31:18.701Z,984.12
2019-02-11T01:32:18.690Z,984.20
2019-02-11T01:33:18.683Z,984.23
2019-02-11T01:34:18.706Z,984.29
2019-02-11T01:35:18.659Z,984.29
2019-02-11T01:36:18.650Z,984.21
2019-02-11T01:37:18.646Z,984.38
2019-02-11T01:38:18.653Z,984.38
2019-02-11T01:39:18.645Z,984.36
2019-02-11T01:40:18.609Z,984.40
2019-02-11T01:41:18.645Z,984.46
2019-02-11T01:42:18.595Z,984.53
2019-02-11T01:43:18.584Z,984.60
2019-02-11T01:44:18.564Z,984.66
2019-02-11T01:45:18.575Z,984.58
2019-02-11T01:46:18.542Z,984.59
2019-02-11T01:47:18.542Z,984.66
2019-02-11T01:48:18.532Z,984.72
2019-02-11T01:49:18.513Z,984.69
2019-02-11T01:50:18.653Z,984.77
2019-02-11T01:51:18.487Z,984.75
2019-02-11T01:52:18.490Z,984.83
2019-02-11T01:53:18.476Z,984.80
2019-02-11T01:54:18.465Z,984.88
2019-02-11T01:55:18.463Z,984.90
2019-02-11T01:56:18.452Z,984.96
2019-02-11T01:57:18.444Z,984.97
2019-02-11T01:58:18.415Z,984.97
2019-02-11T01:59:18.407Z,984.97
2019-02-11T02:00:18.401Z,985.10
2019-02-11T02:01:18.418Z,985.06
2019-02-11T02:02:18.367Z,985.06
2019-02-11T02:03:18.367Z,985.08
2019-02-11T02:04:18.357Z,985.21
2019-02-11T02:05:18.333Z,985.10
2019-02-11T02:06:18.343Z,985.26
2019-02-11T02:07:18.310Z,985.14
2019-02-11T02:08:18.301Z,985.13
2019-02-11T02:09:18.297Z,985.15
2019-02-11T02:10:18.283Z,985.18
2019-02-11T02:11:18.323Z,985.26
2019-02-11T02:12:18.288Z,985.15
2019-02-11T02:13:18.251Z,985.35
2019-02-11T02:14:18.243Z,985.32
2019-02-11T02:15:18.231Z,985.23
2019-02-11T02:16:18.226Z,985.29
2019-02-11T02:17:18.226Z,985.45
2019-02-11T02:18:18.226Z,985.48
2019-02-11T02:19:18.183Z,985.44
2019-02-11T02:20:18.183Z,985.55
2019-02-11T02:21:18.160Z,985.46
2019-02-11T02:22:18.188Z,985.61
2019-02-11T02:23:18.141Z,985.56
2019-02-11T02:24:18.126Z,985.76
2019-02-11T02:25:18.115Z,985.77
2019-02-11T02:26:18.105Z,985.80
2019-02-11T02:27:18.109Z,985.76
2019-02-11T02:28:18.104Z,985.81
2019-02-11T02:29:18.071Z,985.81
2019-02-11T02:30:18.069Z,985.84
2019-02-11T02:31:18.053Z,985.85
2019-02-11T02:32:18.054Z,985.85
2019-02-11T02:33:18.057Z,985.83
2019-02-11T02:34:18.019Z,985.87
2019-02-11T02:35:18.016Z,985.86
2019-02-11T02:36:17.999Z,985.92
2019-02-11T02:37:17.996Z,985.99
2019-02-11T02:38:18.006Z,986.16
2019-02-11T02:39:17.969Z,986.17
2019-02-11T02:40:17.955Z,986.22
2019-02-11T02:41:17.946Z,986.23
2019-02-11T02:42:17.943Z,986.23
2019-02-11T02:43:17.921Z,986.34
2019-02-11T02:44:17.927Z,986.29
2019-02-11T02:45:17.900Z,986.26
2019-02-11T02:46:17.891Z,986.36
2019-02-11T02:47:17.892Z,986.27
2019-02-11T02:48:17.897Z,986.40
2019-02-11T02:49:17.886Z,986.43
2019-02-11T02:50:17.844Z,986.47
2019-02-11T02:51:17.841Z,986.43
2019-02-11T02:52:17.830Z,986.57
2019-02-11T02:53:17.822Z,986.53
2019-02-11T02:54:17.800Z,986.56
2019-02-11T02:55:17.821Z,986.63
2019-02-11T02:56:17.789Z,986.63
2019-02-11T02:57:17.767Z,986.68
2019-02-11T02:58:17.757Z,986.71
2019-02-11T02:59:17.749Z,986.74
2019-02-11T03:00:17.768Z,986.70
2019-02-11T03:01:17.725Z,986.86
2019-02-11T03:02:17.726Z,986.81
2019-02-11T03:03:17.720Z,986.84
2019-02-11T03:04:17.703Z,986.95
2019-02-11T03:05:17.731Z,986.89
2019-02-11T03:06:17.698Z,986.94
2019-02-11T03:07:17.659Z,987.00
2019-02-11T03:08:17.650Z,987.04
2019-02-11T03:09:17.668Z,987.15
2019-02-11T03:10:17.674Z,987.03
2019-02-11T03:11:17.626Z,987.09
2019-02-11T03:12:17.613Z,987.18
2019-02-11T03:13:17.593Z,987.25
2019-02-11T03:14:17.599Z,987.29
2019-02-11T03:15:17.580Z,987.29
2019-02-11T03:16:17.578Z,987.29
2019-02-11T03:17:17.551Z,987.28
2019-02-11T03:18:17.566Z,987.31
2019-02-11T03:19:17.590Z,987.21
2019-02-11T03:20:17.524Z,987.36
2019-02-11T03:21:17.548Z,987.38
2019-02-11T03:22:17.495Z,987.45
2019-02-11T03:23:17.485Z,987.47
2019-02-11T03:24:17.478Z,987.44
2019-02-11T03:25:17.471Z,987.43
2019-02-11T03:26:17.489Z,987.43
2019-02-11T03:27:17.467Z,987.53
2019-02-11T03:28:17.438Z,987.54
2019-02-11T03:29:17.423Z,987.56
2019-02-11T03:30:17.446Z,987.59
2019-02-11T03:31:17.423Z,987.52
2019-02-11T03:32:17.411Z,987.61
2019-02-11T03:33:17.388Z,987.58
2019-02-11T03:34:17.368Z,987.65
2019-02-11T03:35:17.352Z,987.62
2019-02-11T03:36:17.359Z,987.75
2019-02-11T03:37:17.364Z,987.70
2019-02-11T03:38:17.334Z,987.75
2019-02-11T03:39:17.309Z,987.78
2019-02-11T03:40:17.307Z,987.79
2019-02-11T03:41:17.302Z,987.82
2019-02-11T03:42:17.282Z,987.85
2019-02-11T03:43:17.284Z,987.99
2019-02-11T03:44:17.265Z,987.94
2019-02-11T03:45:17.249Z,988.02
2019-02-11T03:46:17.233Z,988.04
2019-02-11T03:47:17.226Z,988.08
2019-02-11T03:48:17.244Z,988.03
2019-02-11T03:49:17.918Z,988.07
2019-02-11T03:50:17.217Z,988.07
2019-02-11T03:51:17.180Z,988.13
2019-02-11T03:52:17.167Z,988.12
2019-02-11T03:53:17.162Z,988.14
2019-02-11T03:54:17.175Z,988.11
2019-02-11T03:55:17.134Z,988.15
2019-02-11T03:56:17.121Z,988.18
2019-02-11T03:57:17.116Z,988.21
2019-02-11T03:58:17.102Z,988.32
2019-02-11T03:59:17.117Z,988.32
2019-02-11T04:00:17.148Z,988.32
2019-02-11T04:01:17.068Z,988.33
2019-02-11T04:02:17.059Z,988.42
2019-02-11T04:03:17.064Z,988.40
2019-02-11T04:04:17.046Z,988.50
2019-02-11T04:05:17.083Z,988.45
2019-02-11T04:06:17.017Z,988.55
2019-02-11T04:07:17.010Z,988.45
2019-02-11T04:08:16.995Z,988.51
2019-02-11T04:09:16.981Z,988.61
2019-02-11T04:10:16.999Z,988.54
2019-02-11T04:11:16.996Z,988.58
2019-02-11T04:12:16.964Z,988.59
2019-02-11T04:13:16.942Z,988.60
2019-02-11T04:14:24.559Z,988.55
2019-02-11T04:15:17.925Z,988.57
2019-02-11T04:16:16.920Z,988.68
2019-02-11T04:17:16.916Z,988.72
2019-02-11T04:18:16.900Z,988.74
2019-02-11T04:19:16.874Z,988.83
2019-02-11T04:20:16.866Z,988.79
2019-02-11T04:21:16.880Z,988.82
2019-02-11T04:22:16.836Z,988.85
2019-02-11T04:23:16.883Z,988.82
2019-02-11T04:24:16.821Z,988.91
2019-02-11T04:25:16.804Z,988.91
2019-02-11T04:26:16.821Z,988.96
2019-02-11T04:27:16.790Z,988.95
2019-02-11T04:28:16.811Z,988.98
2019-02-11T04:29:16.776Z,988.96
2019-02-11T04:30:16.768Z,988.99
2019-02-11T04:31:16.737Z,989.12
2019-02-11T04:32:16.743Z,989.05
2019-02-11T04:33:16.718Z,989.13
2019-02-11T04:34:16.743Z,989.05
2019-02-11T04:35:16.696Z,989.16
2019-02-11T04:36:16.689Z,989.17
2019-02-11T04:37:16.674Z,989.21
2019-02-11T04:38:16.670Z,989.33
2019-02-11T04:39:16.682Z,989.29
2019-02-11T04:40:16.637Z,989.36
2019-02-11T04:41:16.646Z,989.33
2019-02-11T04:42:16.625Z,989.32
2019-02-11T04:43:16.606Z,989.33
2019-02-11T04:44:16.627Z,989.39
2019-02-11T04:45:16.589Z,989.38
2019-02-11T04:46:16.570Z,989.35
2019-02-11T04:47:16.563Z,989.43
2019-02-11T04:48:16.562Z,989.48
2019-02-11T04:49:16.576Z,989.58
2019-02-11T04:50:16.548Z,989.59
2019-02-11T04:51:16.517Z,989.60
2019-02-11T04:52:16.507Z,989.65
2019-02-11T04:53:16.497Z,989.67
2019-02-11T04:54:16.489Z,989.69
2019-02-11T04:55:16.526Z,989.75
2019-02-11T04:56:16.463Z,989.74
2019-02-11T04:57:16.461Z,989.84
2019-02-11T04:58:16.443Z,989.79
2019-02-11T04:59:16.434Z,989.82
2019-02-11T05:00:16.451Z,989.91
2019-02-11T05:01:16.410Z,989.88
2019-02-11T05:02:16.431Z,989.85
2019-02-11T05:03:16.385Z,989.88
2019-02-11T05:04:16.410Z,989.99
2019-02-11T05:05:16.372Z,989.96
2019-02-11T05:06:16.361Z,990.01
2019-02-11T05:07:16.380Z,989.98
2019-02-11T05:08:16.387Z,990.00
2019-02-11T05:09:16.363Z,989.98
2019-02-11T05:10:16.344Z,989.98
2019-02-11T05:11:16.999Z,990.04
2019-02-11T05:12:16.357Z,990.03
2019-02-11T05:13:16.282Z,990.10
2019-02-11T05:14:16.265Z,990.04
2019-02-11T05:15:16.264Z,990.09
2019-02-11T05:16:16.245Z,990.11
2019-02-11T05:17:16.262Z,990.09
2019-02-11T05:18:17.019Z,990.04
2019-02-11T05:19:16.230Z,990.05
2019-02-11T05:20:16.223Z,990.07
2019-02-11T05:21:16.206Z,990.05
2019-02-11T05:22:16.213Z,990.11
2019-02-11T05:23:16.277Z,990.04
2019-02-11T05:24:16.170Z,990.11
2019-02-11T05:25:16.157Z,990.08
2019-02-11T05:26:16.186Z,990.12
2019-02-11T05:27:16.128Z,990.13
2019-02-11T05:28:16.163Z,990.15
2019-02-11T05:29:16.130Z,990.17
2019-02-11T05:30:16.116Z,990.19
2019-02-11T05:31:16.100Z,990.26
2019-02-11T05:32:16.068Z,990.28
2019-02-11T05:33:16.068Z,990.35
2019-02-11T05:34:16.110Z,990.33
2019-02-11T05:35:16.058Z,990.32
2019-02-11T05:36:16.027Z,990.35
2019-02-11T05:37:16.013Z,990.39
2019-02-11T05:38:16.003Z,990.40
2019-02-11T05:39:15.991Z,990.40
2019-02-11T05:40:16.005Z,990.43
2019-02-11T05:41:15.973Z,990.43
2019-02-11T05:42:15.973Z,990.46
2019-02-11T05:43:15.951Z,990.48
2019-02-11T05:44:15.950Z,990.50
2019-02-11T05:45:15.962Z,990.59
2019-02-11T05:46:15.915Z,990.62
2019-02-11T05:47:15.907Z,990.65
2019-02-11T05:48:15.898Z,990.74
2019-02-11T05:49:15.938Z,990.73
2019-02-11T05:50:15.898Z,990.71
2019-02-11T05:51:15.861Z,990.71
2019-02-11T05:52:15.855Z,990.82
2019-02-11T05:53:15.866Z,990.77
2019-02-11T05:54:15.835Z,990.77
2019-02-11T05:55:15.853Z,990.88
2019-02-11T05:56:15.831Z,990.90
2019-02-11T05:57:15.798Z,990.90
2019-02-11T05:58:15.793Z,990.91
2019-02-11T05:59:15.780Z,990.94
2019-02-11T06:00:15.773Z,991.00
2019-02-11T06:01:15.781Z,990.99
2019-02-11T06:02:15.755Z,991.02
2019-02-11T06:03:15.735Z,991.01
2019-02-11T06:04:15.718Z,991.00
2019-02-11T06:05:15.720Z,991.06
2019-02-11T06:06:15.731Z,991.17
2019-02-11T06:07:15.688Z,991.05
2019-02-11T06:08:15.676Z,991.10
2019-02-11T06:09:15.669Z,991.16
2019-02-11T06:10:15.658Z,991.13
2019-02-11T06:11:15.643Z,991.18
2019-02-11T06:12:15.656Z,991.23
2019-02-11T06:13:15.667Z,991.22
2019-02-11T06:14:15.614Z,991.22
2019-02-11T06:15:15.653Z,991.33
2019-02-11T06:16:15.594Z,991.32
2019-02-11T06:17:15.604Z,991.30
2019-02-11T06:18:15.576Z,991.43
2019-02-11T06:19:15.563Z,991.37
2019-02-11T06:20:15.547Z,991.35
2019-02-11T06:21:15.554Z,991.36
2019-02-11T06:22:15.556Z,991.45
2019-02-11T06:23:15.516Z,991.48
2019-02-11T06:24:15.504Z,991.46
2019-02-11T06:25:15.508Z,991.52
2019-02-11T06:26:15.500Z,991.45
2019-02-11T06:27:15.512Z,991.53
2019-02-11T06:28:15.490Z,991.53
2019-02-11T06:29:15.454Z,991.60
2019-02-11T06:30:15.441Z,991.64
2019-02-11T06:31:15.431Z,991.64
2019-02-11T06:32:15.448Z,991.64
2019-02-11T06:33:15.442Z,991.67
2019-02-11T06:34:15.411Z,991.69
2019-02-11T06:35:15.388Z,991.74
2019-02-11T06:36:15.380Z,991.77
2019-02-11T06:37:15.362Z,991.81
2019-02-11T06:38:15.363Z,991.83
2019-02-11T06:39:15.363Z,991.85
2019-02-11T06:40:15.338Z,991.90
2019-02-11T06:41:15.342Z,991.93
2019-02-11T06:42:15.308Z,991.99
2019-02-11T06:43:15.298Z,991.96
2019-02-11T06:44:15.320Z,992.04
2019-02-11T06:45:15.298Z,992.03
2019-02-11T06:46:15.271Z,992.14
2019-02-11T06:47:15.270Z,992.13
2019-02-11T06:48:15.242Z,992.19
2019-02-11T06:49:15.232Z,992.22
2019-02-11T06:50:15.251Z,992.16
2019-02-11T06:51:15.239Z,992.23
2019-02-11T06:52:15.201Z,992.25
2019-02-11T06:53:15.205Z,992.31
2019-02-11T06:54:15.232Z,992.37
2019-02-11T06:55:15.187Z,992.37
2019-02-11T06:56:15.157Z,992.36
2019-02-11T06:57:15.183Z,992.45
2019-02-11T06:58:15.195Z,992.39
2019-02-11T06:59:15.267Z,992.45
2019-02-11T07:00:15.133Z,992.45
2019-02-11T07:01:15.177Z,992.47
2019-02-11T07:02:15.131Z,992.46
2019-02-11T07:03:15.090Z,992.48
2019-02-11T07:04:15.108Z,992.51
2019-02-11T07:05:15.233Z,992.53
2019-02-11T07:06:15.132Z,992.53
2019-02-11T07:07:15.101Z,992.54
2019-02-11T07:08:15.065Z,992.57
2019-02-11T07:09:15.095Z,992.62
2019-02-11T07:10:15.061Z,992.61
2019-02-11T07:11:15.075Z,992.62
2019-02-11T07:12:15.030Z,992.64
2019-02-11T07:13:14.990Z,992.73
2019-02-11T07:14:14.969Z,992.77
2019-02-11T07:15:21.739Z,992.80
2019-02-11T07:16:16.007Z,992.77
2019-02-11T07:17:14.978Z,992.80
2019-02-11T07:18:14.939Z,992.84
2019-02-11T07:19:14.924Z,992.86
2019-02-11T07:20:14.918Z,992.85
2019-02-11T07:21:14.947Z,992.90
2019-02-11T07:22:14.902Z,992.90
2019-02-11T07:23:14.994Z,992.93
2019-02-11T07:24:14.877Z,992.97
2019-02-11T07:25:16.529Z,993.01
2019-02-11T07:26:14.830Z,993.05
2019-02-11T07:27:14.887Z,993.00
2019-02-11T07:28:14.829Z,993.06
2019-02-11T07:29:14.805Z,993.03
2019-02-11T07:30:14.784Z,993.02
2019-02-11T07:31:14.786Z,993.05
2019-02-11T07:32:14.829Z,993.06
2019-02-11T07:33:14.872Z,993.21
2019-02-11T07:34:14.765Z,993.07
2019-02-11T07:35:14.765Z,993.18
2019-02-11T07:36:14.736Z,993.15
2019-02-11T07:37:14.751Z,993.13
2019-02-11T07:38:14.739Z,993.11
2019-02-11T07:39:14.716Z,993.18
2019-02-11T07:40:14.726Z,993.16
2019-02-11T07:41:14.795Z,993.16
2019-02-11T07:42:14.700Z,993.26
2019-02-11T07:43:14.654Z,993.24
2019-02-11T07:44:14.675Z,993.25
2019-02-11T07:45:14.629Z,993.32
2019-02-11T07:46:14.643Z,993.33
2019-02-11T07:47:14.630Z,993.39
2019-02-11T07:48:14.699Z,993.37
2019-02-11T07:49:14.624Z,993.42
2019-02-11T07:50:14.583Z,993.43
2019-02-11T07:51:14.620Z,993.41
2019-02-11T07:52:14.581Z,993.50
2019-02-11T07:53:14.551Z,993.47
2019-02-11T07:54:14.561Z,993.55
2019-02-11T07:55:14.609Z,993.57
2019-02-11T07:56:14.519Z,993.59
2019-02-11T07:57:14.542Z,993.60
2019-02-11T07:58:14.535Z,993.60
2019-02-11T07:59:14.482Z,993.62
2019-02-11T08:00:14.539Z,993.61
2019-02-11T08:01:14.451Z,993.65
2019-02-11T08:02:14.468Z,993.66
2019-02-11T08:03:14.444Z,993.68
2019-02-11T08:04:14.416Z,993.71
2019-02-11T08:05:14.475Z,993.76
2019-02-11T08:06:14.408Z,993.69
2019-02-11T08:07:14.387Z,993.65
2019-02-11T08:08:14.376Z,993.78
2019-02-11T08:09:14.399Z,993.85
2019-02-11T08:10:14.354Z,993.86
2019-02-11T08:11:14.378Z,993.84
2019-02-11T08:12:14.331Z,993.88
2019-02-11T08:13:14.339Z,993.93
2019-02-11T08:14:14.315Z,993.91
2019-02-11T08:15:14.339Z,993.89
2019-02-11T08:16:14.359Z,993.99
2019-02-11T08:17:14.279Z,994.02
2019-02-11T08:18:14.294Z,994.02
2019-02-11T08:19:14.257Z,994.05
2019-02-11T08:20:14.251Z,994.04
2019-02-11T08:21:14.278Z,994.06
2019-02-11T08:22:14.246Z,994.01
2019-02-11T08:23:14.246Z,993.99
2019-02-11T08:24:14.218Z,994.05
2019-02-11T08:25:14.238Z,994.02
2019-02-11T08:26:14.212Z,994.06
2019-02-11T08:27:14.195Z,994.06
2019-02-11T08:28:19.412Z,994.02
2019-02-11T08:29:15.168Z,994.05
2019-02-11T08:30:14.189Z,994.07
2019-02-11T08:31:14.195Z,994.07
2019-02-11T08:32:14.179Z,994.12
2019-02-11T08:33:14.128Z,994.14
2019-02-11T08:34:14.123Z,994.12
2019-02-11T08:35:14.086Z,994.14
2019-02-11T08:36:14.105Z,994.19
2019-02-11T08:37:14.075Z,994.17
2019-02-11T08:38:14.093Z,994.24
2019-02-11T08:39:14.071Z,994.23
2019-02-11T08:40:14.030Z,994.23
2019-02-11T08:41:14.107Z,994.26
2019-02-11T08:42:14.119Z,994.26
2019-02-11T08:43:14.063Z,994.35
2019-02-11T08:44:14.011Z,994.35
2019-02-11T08:45:13.990Z,994.32
2019-02-11T08:46:13.965Z,994.33
2019-02-11T08:47:13.989Z,994.48
2019-02-11T08:48:14.009Z,994.39
2019-02-11T08:49:13.989Z,994.44
2019-02-11T08:50:13.925Z,994.44
2019-02-11T08:51:13.930Z,994.39
2019-02-11T08:52:13.900Z,994.55
2019-02-11T08:53:13.917Z,994.52
2019-02-11T08:54:13.875Z,994.55
2019-02-11T08:55:13.873Z,994.52
2019-02-11T08:56:13.857Z,994.48
2019-02-11T08:57:13.838Z,994.48
2019-02-11T08:58:13.843Z,994.47
2019-02-11T08:59:13.846Z,994.52
2019-02-11T09:00:13.814Z,994.50
2019-02-11T09:01:13.795Z,994.67
2019-02-11T09:02:13.783Z,994.60
2019-02-11T09:03:13.778Z,994.60
2019-02-11T09:04:18.958Z,994.61
2019-02-11T09:05:14.757Z,994.70
2019-02-11T09:06:13.749Z,994.72
2019-02-11T09:07:13.782Z,994.80
2019-02-11T09:08:13.722Z,994.69
2019-02-11T09:09:13.711Z,994.75
2019-02-11T09:10:13.724Z,994.71
2019-02-11T09:11:13.690Z,994.72
2019-02-11T09:12:13.677Z,994.71
2019-02-11T09:13:13.696Z,994.75
2019-02-11T09:14:13.673Z,994.83
2019-02-11T09:15:13.678Z,994.89
2019-02-11T09:16:13.653Z,994.94
2019-02-11T09:17:13.635Z,994.94
2019-02-11T09:18:13.612Z,994.97
2019-02-11T09:19:13.607Z,995.06
2019-02-11T09:20:13.602Z,995.02
2019-02-11T09:21:13.613Z,994.95
2019-02-11T09:22:13.571Z,995.08
2019-02-11T09:23:13.613Z,995.01
2019-02-11T09:24:13.549Z,994.99
2019-02-11T09:25:13.543Z,994.98
2019-02-11T09:26:13.530Z,995.05
2019-02-11T09:27:13.517Z,994.99
2019-02-11T09:28:13.509Z,995.06
2019-02-11T09:29:13.648Z,995.14
2019-02-11T09:30:13.570Z,995.09
2019-02-11T09:31:13.569Z,995.12
2019-02-11T09:32:13.461Z,995.03
2019-02-11T09:33:13.459Z,995.05
2019-02-11T09:34:13.509Z,995.01
2019-02-11T09:35:13.433Z,995.05
2019-02-11T09:36:13.464Z,995.03
2019-02-11T09:37:13.413Z,995.05
2019-02-11T09:38:13.395Z,995.09
2019-02-11T09:39:13.402Z,995.24
2019-02-11T09:40:13.380Z,995.21
2019-02-11T09:41:13.363Z,995.22
2019-02-11T09:42:13.367Z,995.21
2019-02-11T09:43:13.349Z,995.29
2019-02-11T09:44:13.368Z,995.24
2019-02-11T09:45:13.323Z,995.40
2019-02-11T09:46:13.346Z,995.31
2019-02-11T09:47:13.296Z,995.35
2019-02-11T09:48:13.286Z,995.26
2019-02-11T09:49:13.304Z,995.39
2019-02-11T09:50:13.264Z,995.38
2019-02-11T09:51:13.252Z,995.42
2019-02-11T09:52:13.250Z,995.39
2019-02-11T09:53:13.229Z,995.46
2019-02-11T09:54:13.256Z,995.47
2019-02-11T09:55:13.214Z,995.48
2019-02-11T09:56:13.196Z,995.55
2019-02-11T09:57:13.191Z,995.56
2019-02-11T09:58:13.180Z,995.50
2019-02-11T09:59:13.165Z,995.58
2019-02-11T10:00:13.176Z,995.56
2019-02-11T10:01:13.219Z,995.45
2019-02-11T10:02:13.152Z,995.50
2019-02-11T10:03:13.128Z,995.53
2019-02-11T10:04:13.112Z,995.57
2019-02-11T10:05:13.105Z,995.60
2019-02-11T10:06:13.096Z,995.63
2019-02-11T10:07:13.104Z,995.63
2019-02-11T10:08:13.076Z,995.65
2019-02-11T10:09:13.064Z,995.65
2019-02-11T10:10:13.096Z,995.68
2019-02-11T10:11:13.044Z,995.73
2019-02-11T10:12:21.057Z,995.69
2019-02-11T10:13:14.031Z,995.76
2019-02-11T10:14:13.013Z,995.80
2019-02-11T10:15:13.000Z,995.79
2019-02-11T10:16:12.990Z,995.90
2019-02-11T10:17:12.977Z,995.80
2019-02-11T10:18:13.015Z,995.86
2019-02-11T10:19:12.959Z,995.86
2019-02-11T10:20:12.957Z,995.89
2019-02-11T10:21:12.929Z,995.90
2019-02-11T10:22:12.919Z,995.89
2019-02-11T10:23:12.914Z,995.87
2019-02-11T10:24:12.937Z,995.97
2019-02-11T10:25:12.887Z,996.02
2019-02-11T10:26:12.922Z,996.00
2019-02-11T10:27:12.871Z,996.06
2019-02-11T10:28:12.851Z,996.00
2019-02-11T10:29:12.872Z,996.06
2019-02-11T10:30:12.831Z,996.10
2019-02-11T10:31:12.825Z,996.04
2019-02-11T10:32:12.864Z,996.07
2019-02-11T10:33:12.797Z,996.15
2019-02-11T10:34:12.786Z,996.23
2019-02-11T10:35:12.800Z,996.17
2019-02-11T10:36:12.792Z,996.30
2019-02-11T10:37:12.799Z,996.21
2019-02-11T10:38:12.746Z,996.28
2019-02-11T10:39:12.733Z,996.25
2019-02-11T10:40:12.773Z,996.27
2019-02-11T10:41:12.714Z,996.34
2019-02-11T10:42:12.704Z,996.26
2019-02-11T10:43:12.686Z,996.25
2019-02-11T10:44:12.680Z,996.32
2019-02-11T10:45:12.671Z,996.31
2019-02-11T10:46:20.686Z,996.27
2019-02-11T10:47:13.702Z,996.27
2019-02-11T10:48:12.640Z,996.28
2019-02-11T10:49:12.624Z,996.37
2019-02-11T10:50:12.637Z,996.29
2019-02-11T10:51:12.647Z,996.29
2019-02-11T10:52:12.598Z,996.33
2019-02-11T10:53:12.640Z,996.32
2019-02-11T10:54:12.624Z,996.36
2019-02-11T10:55:12.604Z,996.36
2019-02-11T10:56:12.556Z,996.44
2019-02-11T10:57:12.556Z,996.43
2019-02-11T10:58:12.558Z,996.39
2019-02-11T10:59:12.520Z,996.45
2019-02-11T11:00:12.502Z,996.41
2019-02-11T11:01:13.375Z,996.38
2019-02-11T11:02:12.488Z,996.47
2019-02-11T11:03:12.473Z,996.50
2019-02-11T11:04:12.468Z,996.43
2019-02-11T11:05:12.470Z,996.59
2019-02-11T11:06:12.471Z,996.61
2019-02-11T11:07:12.439Z,996.58
2019-02-11T11:08:12.424Z,996.72
2019-02-11T11:09:12.412Z,996.71
2019-02-11T11:10:12.408Z,996.72
2019-02-11T11:11:12.389Z,996.75
2019-02-11T11:12:12.398Z,996.76
2019-02-11T11:13:12.362Z,996.83
2019-02-11T11:14:12.354Z,996.83
2019-02-11T11:15:12.343Z,996.84
2019-02-11T11:16:12.336Z,996.86
2019-02-11T11:17:12.347Z,996.95
2019-02-11T11:18:12.348Z,996.90
2019-02-11T11:19:12.305Z,996.92
2019-02-11T11:20:12.287Z,996.96
2019-02-11T11:21:12.281Z,997.03
2019-02-11T11:22:12.273Z,997.02
2019-02-11T11:23:12.253Z,996.94
2019-02-11T11:24:12.262Z,997.02
2019-02-11T11:25:12.236Z,997.04
2019-02-11T11:26:12.249Z,997.08
2019-02-11T11:27:12.210Z,997.10
2019-02-11T11:28:12.297Z,997.08
2019-02-11T11:29:12.209Z,997.21
2019-02-11T11:30:12.178Z,997.28
2019-02-11T11:31:12.170Z,997.20
2019-02-11T11:32:12.164Z,997.34
2019-02-11T11:33:12.192Z,997.65
2019-02-11T11:34:12.175Z,997.62
2019-02-11T11:35:12.141Z,997.37
2019-02-11T11:36:12.126Z,997.57
2019-02-11T11:37:13.392Z,997.46
2019-02-11T11:38:12.099Z,997.52
2019-02-11T11:39:12.104Z,997.51
2019-02-11T11:40:12.081Z,997.55
2019-02-11T11:41:12.061Z,997.52
2019-02-11T11:42:12.046Z,997.52
2019-02-11T11:43:12.045Z,997.46
2019-02-11T11:44:12.054Z,997.49
2019-02-11T11:45:12.034Z,997.47
2019-02-11T11:46:12.012Z,997.55
2019-02-11T11:47:11.994Z,997.53
2019-02-11T11:48:11.987Z,997.66
2019-02-11T11:49:11.982Z,997.58
2019-02-11T11:50:11.983Z,997.55
2019-02-11T11:51:11.947Z,997.55
2019-02-11T11:52:11.960Z,997.51
2019-02-11T11:53:11.941Z,997.51
2019-02-11T11:54:11.924Z,997.59
2019-02-11T11:55:11.929Z,997.62
2019-02-11T11:56:11.899Z,997.55
2019-02-11T11:57:11.895Z,997.58
2019-02-11T11:58:11.881Z,997.53
2019-02-11T11:59:11.864Z,997.61
2019-02-11T12:00:11.897Z,997.59
2019-02-11T12:01:11.869Z,997.67
2019-02-11T12:02:15.702Z,997.66
2019-02-11T12:03:11.833Z,997.67
2019-02-11T12:04:11.819Z,997.69
2019-02-11T12:05:11.810Z,997.65
2019-02-11T12:06:11.859Z,997.65
2019-02-11T12:07:11.859Z,997.71
2019-02-11T12:08:11.766Z,997.74
2019-02-11T12:09:11.772Z,997.77
2019-02-11T12:10:11.758Z,997.83
2019-02-11T12:11:11.773Z,997.89
2019-02-11T12:12:13.217Z,997.94
2019-02-11T12:13:22.424Z,998.05
2019-02-11T12:14:12.697Z,998.17
2019-02-11T12:15:11.689Z,998.14
2019-02-11T12:16:11.683Z,998.09
2019-02-11T12:17:11.694Z,998.00
2019-02-11T12:18:11.664Z,998.10
2019-02-11T12:19:11.677Z,998.09
2019-02-11T12:20:11.643Z,998.19
2019-02-11T12:21:11.648Z,998.14
2019-02-11T12:22:13.191Z,998.14
2019-02-11T12:23:11.615Z,998.12
2019-02-11T12:24:11.666Z,998.19
2019-02-11T12:25:11.614Z,998.15
2019-02-11T12:26:11.591Z,998.07
2019-02-11T12:27:11.571Z,998.16
2019-02-11T12:28:11.559Z,998.16